createdAt,value
2016-04-25T00:00:18.981Z,0
2016-04-25T00:01:01.109Z,0
2016-04-25T00:01:44.016Z,0
2016-04-25T00:02:26.893Z,0
2016-04-25T00:03:09.785Z,0
2016-04-25T00:03:52.676Z,0
2016-04-25T00:04:35.585Z,0
2016-04-25T00:05:18.511Z,0
2016-04-25T00:06:01.388Z,0
2016-04-25T00:06:44.310Z,0
2016-04-25T00:07:27.187Z,0
2016-04-25T00:08:10.112Z,0
2016-04-25T00:08:53.018Z,0
2016-04-25T00:09:35.926Z,0
2016-04-25T00:10:18.852Z,0
2016-04-25T00:11:00.964Z,0
2016-04-25T00:11:43.886Z,0
2016-04-25T00:12:27.341Z,0
2016-04-25T00:13:10.218Z,0
2016-04-25T00:13:53.109Z,0
2016-04-25T00:14:36.018Z,0
2016-04-25T00:15:18.912Z,0
2016-04-25T00:16:01.790Z,0
2016-04-25T00:16:44.681Z,0
2016-04-25T00:17:27.590Z,0
2016-04-25T00:18:10.482Z,0
2016-04-25T00:18:53.389Z,0
2016-04-25T00:19:36.297Z,0
2016-04-25T00:20:19.175Z,0
2016-04-25T00:21:02.085Z,0
2016-04-25T00:21:45.007Z,0
2016-04-25T00:22:27.654Z,0
2016-04-25T00:23:10.376Z,0
2016-04-25T00:23:53.282Z,0
2016-04-25T00:24:36.176Z,0
2016-04-25T00:25:19.085Z,0
2016-04-25T00:26:01.994Z,0
2016-04-25T00:26:44.900Z,0
2016-04-25T00:27:27.793Z,0
2016-04-25T00:28:11.281Z,0
2016-04-25T00:28:54.187Z,0
2016-04-25T00:29:37.095Z,0
2016-04-25T00:30:20.006Z,0
2016-04-25T00:31:02.883Z,0
2016-04-25T00:31:45.804Z,0
2016-04-25T00:32:28.698Z,0
2016-04-25T00:33:11.576Z,0
2016-04-25T00:33:54.467Z,0
2016-04-25T00:34:37.391Z,0
2016-04-25T00:35:19.503Z,0
2016-04-25T00:36:02.396Z,0
2016-04-25T00:36:49.380Z,0
2016-04-25T00:37:32.353Z,0
2016-04-25T00:38:15.277Z,0
2016-04-25T00:38:58.248Z,0
2016-04-25T00:39:41.201Z,0
2016-04-25T00:40:24.141Z,0
2016-04-25T00:41:07.097Z,0
2016-04-25T00:41:50.097Z,0
2016-04-25T00:42:32.865Z,0
2016-04-25T00:43:16.072Z,0
2016-04-25T00:43:59.011Z,0
2016-04-25T00:44:41.933Z,0
2016-04-25T00:45:24.889Z,0
2016-04-25T00:46:07.829Z,0
2016-04-25T00:46:50.798Z,0
2016-04-25T00:47:33.723Z,0
2016-04-25T00:48:16.663Z,0
2016-04-25T00:48:59.588Z,0
2016-04-25T00:49:42.525Z,0
2016-04-25T00:50:25.465Z,0
2016-04-25T00:51:08.515Z,0
2016-04-25T00:51:51.437Z,0
2016-04-25T00:52:34.376Z,0
2016-04-25T00:53:17.333Z,0
2016-04-25T00:54:00.304Z,0
2016-04-25T00:54:43.226Z,0
2016-04-25T00:55:26.182Z,0
2016-04-25T00:56:09.137Z,0
2016-04-25T00:56:52.184Z,0
2016-04-25T00:57:35.313Z,0
2016-04-25T00:58:18.018Z,0
2016-04-25T00:59:00.959Z,0
2016-04-25T00:59:43.896Z,0
2016-04-25T01:00:26.836Z,0
2016-04-25T01:01:09.806Z,0
2016-04-25T01:01:52.744Z,0
2016-04-25T01:02:35.700Z,0
2016-04-25T01:03:18.641Z,0
2016-04-25T01:04:01.597Z,0
2016-04-25T01:04:44.534Z,0
2016-04-25T01:05:27.475Z,0
2016-04-25T01:06:10.414Z,0
2016-04-25T01:06:53.398Z,0
2016-04-25T01:07:36.323Z,0
2016-04-25T01:08:19.264Z,0
2016-04-25T01:09:02.189Z,0
2016-04-25T01:09:45.126Z,0
2016-04-25T01:10:28.081Z,0
2016-04-25T01:11:11.021Z,0
2016-04-25T01:11:54.146Z,0
2016-04-25T01:12:37.649Z,0
2016-04-25T01:13:20.761Z,0
2016-04-25T01:14:03.702Z,0
2016-04-25T01:14:46.639Z,0
2016-04-25T01:15:29.610Z,0
2016-04-25T01:16:12.550Z,0
2016-04-25T01:16:55.332Z,0
2016-04-25T01:17:38.257Z,0
2016-04-25T01:18:21.213Z,0
2016-04-25T01:19:04.152Z,0
2016-04-25T01:19:47.105Z,0
2016-04-25T01:20:30.030Z,0
2016-04-25T01:21:12.985Z,0
2016-04-25T01:21:55.938Z,0
2016-04-25T01:22:38.880Z,0
2016-04-25T01:23:21.835Z,0
2016-04-25T01:24:04.775Z,0
2016-04-25T01:24:47.712Z,0
2016-04-25T01:25:30.653Z,0
2016-04-25T01:26:13.593Z,0
2016-04-25T01:26:56.531Z,0
2016-04-25T01:27:39.174Z,0
2016-04-25T01:28:23.162Z,0
2016-04-25T01:29:06.101Z,0
2016-04-25T01:29:49.023Z,0
2016-04-25T01:30:31.963Z,0
2016-04-25T01:31:14.904Z,0
2016-04-25T01:31:57.857Z,0
2016-04-25T01:32:40.797Z,0
2016-04-25T01:33:23.768Z,0
2016-04-25T01:34:06.709Z,0
2016-04-25T01:34:49.662Z,0
2016-04-25T01:35:32.601Z,0
2016-04-25T01:36:15.542Z,0
2016-04-25T01:36:58.482Z,0
2016-04-25T01:37:41.451Z,0
2016-04-25T01:38:24.281Z,0
2016-04-25T01:39:07.253Z,0
2016-04-25T01:39:50.175Z,0
2016-04-25T01:40:33.178Z,0
2016-04-25T01:41:16.118Z,0
2016-04-25T01:41:59.870Z,0
2016-04-25T01:42:44.152Z,0
2016-04-25T01:43:27.794Z,0
2016-04-25T01:44:10.735Z,0
2016-04-25T01:44:53.657Z,0
2016-04-25T01:45:36.597Z,0
2016-04-25T01:46:19.538Z,0
2016-04-25T01:47:02.494Z,0
2016-04-25T01:47:45.447Z,0
2016-04-25T01:48:28.402Z,0
2016-04-25T01:49:11.327Z,0
2016-04-25T01:49:54.296Z,0
2016-04-25T01:50:37.221Z,0
2016-04-25T01:51:20.160Z,0
2016-04-25T01:52:02.960Z,0
2016-04-25T01:52:45.897Z,0
2016-04-25T01:53:28.838Z,0
2016-04-25T01:54:11.778Z,0
2016-04-25T01:54:54.716Z,0
2016-04-25T01:55:37.655Z,0
2016-04-25T01:56:20.596Z,0
2016-04-25T01:57:03.535Z,0
2016-04-25T01:57:46.707Z,0
2016-04-25T01:58:32.070Z,0
2016-04-25T01:59:15.041Z,0
2016-04-25T01:59:57.995Z,0
2016-04-25T02:00:40.918Z,0
2016-04-25T02:01:23.876Z,0
2016-04-25T02:02:06.018Z,0
2016-04-25T02:02:48.987Z,0
2016-04-25T02:03:31.756Z,0
2016-04-25T02:04:14.773Z,0
2016-04-25T02:04:57.726Z,0
2016-04-25T02:05:40.682Z,0
2016-04-25T02:06:23.607Z,0
2016-04-25T02:07:06.532Z,0
2016-04-25T02:07:49.485Z,0
2016-04-25T02:08:32.425Z,0
2016-04-25T02:09:15.365Z,0
2016-04-25T02:09:58.318Z,0
2016-04-25T02:10:41.274Z,0
2016-04-25T02:11:24.215Z,0
2016-04-25T02:12:07.170Z,0
2016-04-25T02:12:50.014Z,0
2016-04-25T02:13:33.547Z,0
2016-04-25T02:14:16.503Z,0
2016-04-25T02:14:59.441Z,0
2016-04-25T02:15:42.397Z,0
2016-04-25T02:16:25.353Z,0
2016-04-25T02:17:08.339Z,0
2016-04-25T02:17:51.246Z,0
2016-04-25T02:18:34.233Z,0
2016-04-25T02:19:17.173Z,0
2016-04-25T02:20:00.126Z,0
2016-04-25T02:20:43.082Z,0
2016-04-25T02:21:26.023Z,0
2016-04-25T02:22:08.963Z,0
2016-04-25T02:22:51.932Z,0
2016-04-25T02:23:34.871Z,0
2016-04-25T02:24:17.827Z,0
2016-04-25T02:25:00.749Z,0
2016-04-25T02:25:43.689Z,0
2016-04-25T02:26:26.630Z,0
2016-04-25T02:27:09.602Z,0
2016-04-25T02:27:53.852Z,0
2016-04-25T02:28:36.556Z,0
2016-04-25T02:29:19.513Z,0
2016-04-25T02:30:02.468Z,0
2016-04-25T02:30:45.421Z,0
2016-04-25T02:31:28.346Z,0
2016-04-25T02:32:11.271Z,0
2016-04-25T02:32:54.224Z,0
2016-04-25T02:33:37.165Z,0
2016-04-25T02:34:20.136Z,0
2016-04-25T02:35:03.060Z,0
2016-04-25T02:35:46.013Z,0
2016-04-25T02:36:28.953Z,0
2016-04-25T02:37:11.878Z,0
2016-04-25T02:37:54.815Z,0
2016-04-25T02:38:37.770Z,0
2016-04-25T02:39:20.711Z,0
2016-04-25T02:40:03.652Z,0
2016-04-25T02:40:46.621Z,0
2016-04-25T02:41:29.545Z,0
2016-04-25T02:42:12.486Z,0
2016-04-25T02:42:55.876Z,0
2016-04-25T02:43:39.706Z,0
2016-04-25T02:44:23.022Z,0
2016-04-25T02:45:05.978Z,0
2016-04-25T02:45:48.915Z,0
2016-04-25T02:46:31.856Z,0
2016-04-25T02:47:14.811Z,0
2016-04-25T02:47:57.764Z,0
2016-04-25T02:48:40.705Z,0
2016-04-25T02:49:23.645Z,0
2016-04-25T02:50:06.616Z,0
2016-04-25T02:50:49.600Z,0
2016-04-25T02:51:32.541Z,0
2016-04-25T02:52:15.497Z,0
2016-04-25T02:52:58.419Z,0
2016-04-25T02:53:41.358Z,0
2016-04-25T02:54:24.314Z,0
2016-04-25T02:55:07.316Z,0
2016-04-25T02:55:50.270Z,0
2016-04-25T02:56:33.211Z,0
2016-04-25T02:57:16.135Z,0
2016-04-25T02:57:59.166Z,0
2016-04-25T02:58:41.732Z,0
2016-04-25T02:59:24.688Z,0
2016-04-25T03:00:07.627Z,0
2016-04-25T03:00:50.580Z,0
2016-04-25T03:01:33.537Z,0
2016-04-25T03:02:16.492Z,0
2016-04-25T03:02:59.398Z,0
2016-04-25T03:03:42.339Z,0
2016-04-25T03:04:25.295Z,0
2016-04-25T03:05:08.234Z,0
2016-04-25T03:05:51.172Z,0
2016-04-25T03:06:34.160Z,0
2016-04-25T03:07:17.115Z,0
2016-04-25T03:08:00.037Z,0
2016-04-25T03:08:42.976Z,0
2016-04-25T03:09:25.933Z,0
2016-04-25T03:10:08.857Z,0
2016-04-25T03:10:51.811Z,0
2016-04-25T03:11:34.767Z,0
2016-04-25T03:12:17.722Z,0
2016-04-25T03:13:00.847Z,0
2016-04-25T03:13:43.975Z,0
2016-04-25T03:14:27.197Z,0
2016-04-25T03:15:10.136Z,0
2016-04-25T03:15:52.292Z,0
2016-04-25T03:16:34.452Z,0
2016-04-25T03:17:17.408Z,0
2016-04-25T03:18:00.345Z,0
2016-04-25T03:18:43.285Z,0
2016-04-25T03:19:26.242Z,0
2016-04-25T03:20:09.181Z,0
2016-04-25T03:20:52.103Z,0
2016-04-25T03:21:35.074Z,0
2016-04-25T03:22:18.014Z,0
2016-04-25T03:23:00.936Z,0
2016-04-25T03:23:43.892Z,0
2016-04-25T03:24:26.832Z,0
2016-04-25T03:25:09.772Z,0
2016-04-25T03:25:52.710Z,0
2016-04-25T03:26:35.666Z,0
2016-04-25T03:27:18.607Z,0
2016-04-25T03:28:02.403Z,0
2016-04-25T03:28:46.109Z,0
2016-04-25T03:29:29.112Z,0
2016-04-25T03:30:12.051Z,0
2016-04-25T03:30:55.004Z,0
2016-04-25T03:31:37.929Z,0
2016-04-25T03:32:20.902Z,0
2016-04-25T03:33:03.824Z,0
2016-04-25T03:33:46.793Z,0
2016-04-25T03:34:29.735Z,0
2016-04-25T03:35:12.690Z,0
2016-04-25T03:35:55.612Z,0
2016-04-25T03:36:38.568Z,0
2016-04-25T03:37:21.524Z,4
2016-04-25T03:38:04.462Z,4
2016-04-25T03:38:47.261Z,0
2016-04-25T03:39:30.201Z,0
2016-04-25T03:40:13.156Z,4
2016-04-25T03:40:56.094Z,4
2016-04-25T03:41:39.034Z,4
2016-04-25T03:42:21.975Z,4
2016-04-25T03:43:04.615Z,4
2016-04-25T03:43:47.025Z,4
2016-04-25T03:44:30.042Z,4
2016-04-25T03:45:12.998Z,8
2016-04-25T03:45:55.951Z,4
2016-04-25T03:46:38.892Z,8
2016-04-25T03:47:21.817Z,8
2016-04-25T03:48:04.770Z,8
2016-04-25T03:48:47.709Z,8
2016-04-25T03:49:30.650Z,8
2016-04-25T03:50:13.575Z,12
2016-04-25T03:50:56.528Z,12
2016-04-25T03:51:39.452Z,12
2016-04-25T03:52:22.392Z,12
2016-04-25T03:53:05.330Z,16
2016-04-25T03:53:48.302Z,20
2016-04-25T03:54:31.241Z,20
2016-04-25T03:55:14.166Z,24
2016-04-25T03:55:57.103Z,24
2016-04-25T03:56:40.044Z,28
2016-04-25T03:57:22.984Z,32
2016-04-25T03:58:05.797Z,36
2016-04-25T03:58:49.565Z,36
2016-04-25T03:59:33.082Z,40
2016-04-25T04:00:16.038Z,44
2016-04-25T04:00:58.991Z,48
2016-04-25T04:01:41.933Z,56
2016-04-25T04:02:24.872Z,64
2016-04-25T04:03:07.826Z,68
2016-04-25T04:03:50.765Z,76
2016-04-25T04:04:33.706Z,84
2016-04-25T04:05:16.662Z,88
2016-04-25T04:05:59.599Z,100
2016-04-25T04:06:42.524Z,108
2016-04-25T04:07:25.495Z,116
2016-04-25T04:08:08.417Z,128
2016-04-25T04:08:51.357Z,136
2016-04-25T04:09:34.298Z,144
2016-04-25T04:10:17.269Z,152
2016-04-25T04:11:00.238Z,164
2016-04-25T04:11:43.037Z,176
2016-04-25T04:12:25.977Z,192
2016-04-25T04:13:09.945Z,200
2016-04-25T04:13:53.105Z,220
2016-04-25T04:14:35.905Z,232
2016-04-25T04:15:18.704Z,248
2016-04-25T04:16:01.626Z,264
2016-04-25T04:16:44.551Z,284
2016-04-25T04:17:27.506Z,304
2016-04-25T04:18:10.444Z,320
2016-04-25T04:18:53.384Z,340
2016-04-25T04:19:36.325Z,364
2016-04-25T04:20:19.280Z,388
2016-04-25T04:21:02.202Z,412
2016-04-25T04:21:45.003Z,436
2016-04-25T04:22:27.536Z,460
2016-04-25T04:23:10.458Z,484
2016-04-25T04:23:53.383Z,508
2016-04-25T04:24:36.322Z,536
2016-04-25T04:25:19.263Z,564
2016-04-25T04:26:02.200Z,588
2016-04-25T04:26:45.155Z,612
2016-04-25T04:27:28.112Z,636
2016-04-25T04:28:12.208Z,664
2016-04-25T04:28:56.317Z,688
2016-04-25T04:29:39.289Z,716
2016-04-25T04:30:22.229Z,740
2016-04-25T04:31:05.197Z,764
2016-04-25T04:31:48.138Z,792
2016-04-25T04:32:31.093Z,816
2016-04-25T04:33:14.035Z,844
2016-04-25T04:33:56.988Z,864
2016-04-25T04:34:39.943Z,884
2016-04-25T04:35:22.915Z,912
2016-04-25T04:36:05.836Z,948
2016-04-25T04:36:48.776Z,980
2016-04-25T04:37:31.732Z,1016
2016-04-25T04:38:14.704Z,1052
2016-04-25T04:38:57.641Z,1084
2016-04-25T04:39:40.596Z,1112
2016-04-25T04:40:23.537Z,1144
2016-04-25T04:41:06.474Z,1164
2016-04-25T04:41:49.415Z,1180
2016-04-25T04:42:32.371Z,1196
2016-04-25T04:43:15.186Z,1212
2016-04-25T04:43:58.311Z,1232
2016-04-25T04:44:41.251Z,1248
2016-04-25T04:45:24.191Z,1272
2016-04-25T04:46:07.144Z,1300
2016-04-25T04:46:50.070Z,1328
2016-04-25T04:47:32.197Z,1360
2016-04-25T04:48:15.153Z,1388
2016-04-25T04:48:58.121Z,1408
2016-04-25T04:49:41.077Z,1420
2016-04-25T04:50:24.017Z,1416
2016-04-25T04:51:07.033Z,1420
2016-04-25T04:51:49.973Z,1436
2016-04-25T04:52:32.914Z,1476
2016-04-25T04:53:15.869Z,1520
2016-04-25T04:53:58.806Z,1560
2016-04-25T04:54:41.762Z,1572
2016-04-25T04:55:24.718Z,1572
2016-04-25T04:56:07.702Z,1580
2016-04-25T04:56:50.642Z,1592
2016-04-25T04:57:33.599Z,1636
2016-04-25T04:58:16.413Z,1664
2016-04-25T04:59:00.351Z,1688
2016-04-25T04:59:43.275Z,1704
2016-04-25T05:00:26.232Z,1736
2016-04-25T05:01:09.028Z,1760
2016-04-25T05:01:51.969Z,1780
2016-04-25T05:02:34.908Z,1800
2016-04-25T05:03:17.849Z,1828
2016-04-25T05:04:00.818Z,1852
2016-04-25T05:04:43.743Z,1856
2016-04-25T05:05:26.699Z,1876
2016-04-25T05:06:09.667Z,1920
2016-04-25T05:06:52.623Z,1956
2016-04-25T05:07:35.532Z,1992
2016-04-25T05:08:18.503Z,2012
2016-04-25T05:09:01.440Z,2048
2016-04-25T05:09:44.396Z,2120
2016-04-25T05:10:27.352Z,2156
2016-04-25T05:11:10.290Z,2148
2016-04-25T05:11:53.215Z,2176
2016-04-25T05:12:36.206Z,2224
2016-04-25T05:13:18.908Z,2272
2016-04-25T05:14:02.596Z,2308
2016-04-25T05:14:45.519Z,2340
2016-04-25T05:15:28.611Z,2332
2016-04-25T05:16:11.533Z,2332
2016-04-25T05:16:54.533Z,2348
2016-04-25T05:17:37.511Z,2400
2016-04-25T05:18:20.498Z,2456
2016-04-25T05:19:03.436Z,2444
2016-04-25T05:19:46.391Z,2504
2016-04-25T05:20:29.348Z,2600
2016-04-25T05:21:12.332Z,2684
2016-04-25T05:21:55.319Z,2696
2016-04-25T05:22:38.126Z,2756
2016-04-25T05:23:21.057Z,2832
2016-04-25T05:24:03.994Z,2872
2016-04-25T05:24:46.941Z,2884
2016-04-25T05:25:29.886Z,2880
2016-04-25T05:26:12.847Z,2832
2016-04-25T05:26:55.769Z,2888
2016-04-25T05:27:38.727Z,2980
2016-04-25T05:28:21.701Z,3024
2016-04-25T05:29:04.639Z,3044
2016-04-25T05:29:47.971Z,3048
2016-04-25T05:30:30.930Z,3124
2016-04-25T05:31:13.887Z,3124
2016-04-25T05:31:56.824Z,3152
2016-04-25T05:32:39.796Z,3160
2016-04-25T05:33:22.753Z,3192
2016-04-25T05:34:05.706Z,3256
2016-04-25T05:34:48.647Z,3320
2016-04-25T05:35:31.588Z,3408
2016-04-25T05:36:14.529Z,3460
2016-04-25T05:36:57.498Z,3492
2016-04-25T05:37:40.439Z,3520
2016-04-25T05:38:23.379Z,3604
2016-04-25T05:39:06.332Z,3664
2016-04-25T05:39:49.258Z,3764
2016-04-25T05:40:32.214Z,3884
2016-04-25T05:41:15.139Z,4048
2016-04-25T05:41:58.092Z,4260
2016-04-25T05:42:40.891Z,4468
2016-04-25T05:43:23.910Z,4684
2016-04-25T05:44:07.535Z,4824
2016-04-25T05:44:50.194Z,5024
2016-04-25T05:45:33.149Z,5152
2016-04-25T05:46:16.089Z,5356
2016-04-25T05:46:59.058Z,5524
2016-04-25T05:47:41.202Z,5560
2016-04-25T05:48:24.158Z,5544
2016-04-25T05:49:07.111Z,5548
2016-04-25T05:49:50.051Z,5508
2016-04-25T05:50:32.991Z,5464
2016-04-25T05:51:15.930Z,5380
2016-04-25T05:51:58.883Z,5296
2016-04-25T05:52:41.809Z,5208
2016-04-25T05:53:24.780Z,5152
2016-04-25T05:54:07.733Z,5040
2016-04-25T05:54:50.673Z,4916
2016-04-25T05:55:33.599Z,4900
2016-04-25T05:56:16.554Z,4828
2016-04-25T05:56:59.476Z,4724
2016-04-25T05:57:42.447Z,4680
2016-04-25T05:58:26.075Z,4652
2016-04-25T05:59:09.872Z,4528
2016-04-25T05:59:53.437Z,4484
2016-04-25T06:00:36.393Z,4388
2016-04-25T06:01:19.348Z,4356
2016-04-25T06:02:02.285Z,4408
2016-04-25T06:02:45.258Z,4496
2016-04-25T06:03:28.182Z,4572
2016-04-25T06:04:11.135Z,4680
2016-04-25T06:04:54.075Z,4784
2016-04-25T06:05:37.016Z,4852
2016-04-25T06:06:19.956Z,4896
2016-04-25T06:07:02.909Z,4964
2016-04-25T06:07:45.849Z,5032
2016-04-25T06:08:28.774Z,5084
2016-04-25T06:09:11.727Z,5156
2016-04-25T06:09:54.682Z,5348
2016-04-25T06:10:37.607Z,5492
2016-04-25T06:11:20.547Z,5564
2016-04-25T06:12:03.469Z,5588
2016-04-25T06:12:46.425Z,5664
2016-04-25T06:13:30.584Z,5716
2016-04-25T06:14:14.853Z,5752
2016-04-25T06:14:57.790Z,5836
2016-04-25T06:15:40.745Z,5960
2016-04-25T06:16:22.873Z,5908
2016-04-25T06:17:05.826Z,5728
2016-04-25T06:17:48.767Z,5884
2016-04-25T06:18:31.722Z,5716
2016-04-25T06:19:14.678Z,5652
2016-04-25T06:19:57.616Z,5784
2016-04-25T06:20:40.556Z,5680
2016-04-25T06:21:23.480Z,5544
2016-04-25T06:22:06.433Z,5624
2016-04-25T06:22:49.359Z,5768
2016-04-25T06:23:32.331Z,5788
2016-04-25T06:24:15.270Z,6020
2016-04-25T06:24:58.208Z,5532
2016-04-25T06:25:41.164Z,5292
2016-04-25T06:26:24.136Z,5488
2016-04-25T06:27:07.089Z,5648
2016-04-25T06:27:50.076Z,5940
2016-04-25T06:28:35.594Z,5652
2016-04-25T06:29:20.362Z,5380
2016-04-25T06:30:03.972Z,5620
2016-04-25T06:30:46.912Z,5648
2016-04-25T06:31:29.867Z,5888
2016-04-25T06:32:12.789Z,6336
2016-04-25T06:32:55.730Z,6436
2016-04-25T06:33:38.702Z,6564
2016-04-25T06:34:21.688Z,7348
2016-04-25T06:35:04.657Z,7264
2016-04-25T06:35:46.801Z,6816
2016-04-25T06:36:29.772Z,5852
2016-04-25T06:37:12.694Z,6472
2016-04-25T06:37:55.633Z,6496
2016-04-25T06:38:38.591Z,6708
2016-04-25T06:39:21.545Z,6384
2016-04-25T06:40:04.482Z,6192
2016-04-25T06:40:47.439Z,5512
2016-04-25T06:41:30.379Z,6128
2016-04-25T06:42:13.316Z,6556
2016-04-25T06:42:56.257Z,6628
2016-04-25T06:43:39.634Z,6544
2016-04-25T06:44:22.888Z,6104
2016-04-25T06:45:05.841Z,6920
2016-04-25T06:45:48.796Z,7568
2016-04-25T06:46:31.752Z,6636
2016-04-25T06:47:14.690Z,6100
2016-04-25T06:47:57.645Z,6948
2016-04-25T06:48:40.586Z,7304
2016-04-25T06:49:23.540Z,6260
2016-04-25T06:50:06.478Z,6468
2016-04-25T06:50:49.419Z,6232
2016-04-25T06:51:32.359Z,6444
2016-04-25T06:52:15.312Z,6464
2016-04-25T06:52:58.253Z,6616
2016-04-25T06:53:41.192Z,6324
2016-04-25T06:54:24.134Z,6624
2016-04-25T06:55:07.087Z,7072
2016-04-25T06:55:50.073Z,6952
2016-04-25T06:56:33.014Z,6476
2016-04-25T06:57:15.951Z,6436
2016-04-25T06:57:58.875Z,6356
2016-04-25T06:58:42.159Z,6244
2016-04-25T06:59:26.100Z,6260
2016-04-25T07:00:09.178Z,6212
2016-04-25T07:00:52.134Z,6196
2016-04-25T07:01:35.089Z,6296
2016-04-25T07:02:17.245Z,6204
2016-04-25T07:03:00.200Z,6216
2016-04-25T07:03:43.157Z,6164
2016-04-25T07:04:26.097Z,6232
2016-04-25T07:05:09.097Z,6300
2016-04-25T07:05:52.038Z,6336
2016-04-25T07:06:34.978Z,6320
2016-04-25T07:07:17.949Z,6372
2016-04-25T07:08:00.902Z,6428
2016-04-25T07:08:43.827Z,6492
2016-04-25T07:09:26.783Z,6564
2016-04-25T07:10:09.736Z,6608
2016-04-25T07:10:52.660Z,6704
2016-04-25T07:11:35.600Z,6684
2016-04-25T07:12:18.557Z,6688
2016-04-25T07:13:01.510Z,6704
2016-04-25T07:13:44.465Z,6772
2016-04-25T07:14:28.233Z,6800
2016-04-25T07:15:11.202Z,6724
2016-04-25T07:15:54.143Z,6676
2016-04-25T07:16:37.098Z,6680
2016-04-25T07:17:20.038Z,6668
2016-04-25T07:18:02.991Z,6584
2016-04-25T07:18:45.948Z,6524
2016-04-25T07:19:28.888Z,6668
2016-04-25T07:20:11.794Z,6636
2016-04-25T07:20:54.749Z,6628
2016-04-25T07:21:37.721Z,6632
2016-04-25T07:22:20.676Z,6636
2016-04-25T07:23:06.161Z,6724
2016-04-25T07:23:49.132Z,6756
2016-04-25T07:24:32.089Z,6760
2016-04-25T07:25:15.057Z,6836
2016-04-25T07:25:58.029Z,6892
2016-04-25T07:26:40.969Z,6956
2016-04-25T07:27:25.737Z,7000
2016-04-25T07:28:10.425Z,7044
2016-04-25T07:28:54.568Z,7324
2016-04-25T07:29:37.680Z,7716
2016-04-25T07:30:20.636Z,7852
2016-04-25T07:31:03.573Z,8440
2016-04-25T07:31:46.529Z,9028
2016-04-25T07:32:29.345Z,9924
2016-04-25T07:33:12.298Z,9272
2016-04-25T07:33:55.253Z,10008
2016-04-25T07:34:38.209Z,10440
2016-04-25T07:35:21.165Z,10788
2016-04-25T07:36:04.119Z,9196
2016-04-25T07:36:47.058Z,9424
2016-04-25T07:37:32.983Z,10212
2016-04-25T07:38:15.936Z,11520
2016-04-25T07:38:58.891Z,10432
2016-04-25T07:39:41.817Z,10256
2016-04-25T07:40:24.772Z,10668
2016-04-25T07:41:07.725Z,11416
2016-04-25T07:41:50.697Z,11260
2016-04-25T07:42:36.980Z,12016
2016-04-25T07:43:19.843Z,10096
2016-04-25T07:44:02.233Z,10428
2016-04-25T07:44:45.235Z,10844
2016-04-25T07:45:28.192Z,10444
2016-04-25T07:46:11.146Z,10808
2016-04-25T07:46:54.085Z,11092
2016-04-25T07:47:38.338Z,11780
2016-04-25T07:48:21.153Z,12428
2016-04-25T07:49:04.121Z,11576
2016-04-25T07:49:47.062Z,12040
2016-04-25T07:50:30.002Z,12120
2016-04-25T07:51:12.971Z,12596
2016-04-25T07:51:55.911Z,12300
2016-04-25T07:52:42.102Z,12816
2016-04-25T07:53:25.042Z,11804
2016-04-25T07:54:08.010Z,13768
2016-04-25T07:54:50.935Z,13260
2016-04-25T07:55:33.923Z,14140
2016-04-25T07:56:16.876Z,12036
2016-04-25T07:56:59.846Z,13160
2016-04-25T07:57:42.786Z,14748
2016-04-25T07:58:25.024Z,13056
2016-04-25T07:59:08.884Z,13268
2016-04-25T07:59:51.729Z,11680
2016-04-25T08:00:34.686Z,11992
2016-04-25T08:01:17.623Z,9696
2016-04-25T08:02:00.579Z,11452
2016-04-25T08:02:44.956Z,11044
2016-04-25T08:03:27.897Z,11644
2016-04-25T08:04:10.678Z,10752
2016-04-25T08:04:53.618Z,13320
2016-04-25T08:05:36.574Z,26880
2016-04-25T08:06:19.527Z,12752
2016-04-25T08:07:02.514Z,36544
2016-04-25T08:07:45.455Z,15996
2016-04-25T08:08:28.425Z,20096
2016-04-25T08:09:11.347Z,13060
2016-04-25T08:09:54.303Z,13368
2016-04-25T08:10:37.259Z,13416
2016-04-25T08:11:20.213Z,13420
2016-04-25T08:12:03.153Z,15080
2016-04-25T08:12:46.305Z,15748
2016-04-25T08:13:29.558Z,53792
2016-04-25T08:14:12.495Z,13048
2016-04-25T08:14:55.998Z,38176
2016-04-25T08:15:38.953Z,13292
2016-04-25T08:16:21.891Z,12924
2016-04-25T08:17:04.846Z,12960
2016-04-25T08:17:47.803Z,13436
2016-04-25T08:18:30.774Z,63008
2016-04-25T08:19:13.727Z,61664
2016-04-25T08:19:56.699Z,55488
2016-04-25T08:20:39.669Z,20768
2016-04-25T08:21:22.622Z,16576
2016-04-25T08:22:05.563Z,35488
2016-04-25T08:22:48.520Z,20480
2016-04-25T08:23:31.445Z,35392
2016-04-25T08:24:14.445Z,19136
2016-04-25T08:24:57.384Z,14716
2016-04-25T08:25:40.419Z,13964
2016-04-25T08:26:23.356Z,14672
2016-04-25T08:27:06.297Z,14332
2016-04-25T08:27:49.252Z,15328
2016-04-25T08:28:31.942Z,17376
2016-04-25T08:29:16.848Z,16144
2016-04-25T08:29:59.836Z,32160
2016-04-25T08:30:42.761Z,31520
2016-04-25T08:31:25.731Z,36064
2016-04-25T08:32:08.685Z,41216
2016-04-25T08:32:51.641Z,40288
2016-04-25T08:33:34.580Z,15024
2016-04-25T08:34:20.049Z,13528
2016-04-25T08:35:03.022Z,46080
2016-04-25T08:35:45.992Z,57376
2016-04-25T08:36:28.964Z,62784
2016-04-25T08:37:11.933Z,37856
2016-04-25T08:37:54.888Z,50240
2016-04-25T08:38:37.844Z,12120
2016-04-25T08:39:20.782Z,12944
2016-04-25T08:40:03.738Z,15120
2016-04-25T08:40:46.667Z,65984
2016-04-25T08:41:29.654Z,15948
2016-04-25T08:42:12.591Z,32448
2016-04-25T08:42:55.548Z,58752
2016-04-25T08:43:38.362Z,20288
2016-04-25T08:44:21.143Z,30528
2016-04-25T08:45:04.194Z,60288
2016-04-25T08:45:47.181Z,70336
2016-04-25T08:46:30.121Z,72544
2016-04-25T08:47:13.090Z,72928
2016-04-25T08:47:56.045Z,70240
2016-04-25T08:48:38.985Z,64576
2016-04-25T08:49:21.939Z,17664
2016-04-25T08:50:04.910Z,51872
2016-04-25T08:50:47.865Z,63424
2016-04-25T08:51:30.806Z,70784
2016-04-25T08:52:13.759Z,68448
2016-04-25T08:52:56.700Z,74464
2016-04-25T08:53:39.639Z,63680
2016-04-25T08:54:22.608Z,49504
2016-04-25T08:55:05.548Z,70400
2016-04-25T08:55:48.504Z,79712
2016-04-25T08:56:31.444Z,75744
2016-04-25T08:57:14.413Z,76448
2016-04-25T08:57:57.384Z,78528
2016-04-25T08:58:41.528Z,83232
2016-04-25T08:59:24.966Z,16680
2016-04-25T09:00:07.922Z,89472
2016-04-25T09:00:50.861Z,85984
2016-04-25T09:01:33.833Z,67584
2016-04-25T09:02:16.802Z,15804
2016-04-25T09:02:59.741Z,14796
2016-04-25T09:03:42.682Z,21376
2016-04-25T09:04:25.607Z,22624
2016-04-25T09:05:08.591Z,17024
2016-04-25T09:05:51.531Z,89216
2016-04-25T09:06:34.518Z,88128
2016-04-25T09:07:17.424Z,17536
2016-04-25T09:08:00.396Z,80672
2016-04-25T09:08:43.336Z,74464
2016-04-25T09:09:26.308Z,75904
2016-04-25T09:10:09.261Z,61664
2016-04-25T09:10:52.216Z,59424
2016-04-25T09:11:35.172Z,74048
2016-04-25T09:12:18.126Z,20416
2016-04-25T09:13:01.065Z,75136
2016-04-25T09:13:44.865Z,18688
2016-04-25T09:14:28.102Z,19840
2016-04-25T09:15:11.384Z,17504
2016-04-25T09:15:54.323Z,18656
2016-04-25T09:16:37.283Z,21792
2016-04-25T09:17:20.221Z,29344
2016-04-25T09:18:03.177Z,15536
2016-04-25T09:18:46.164Z,15076
2016-04-25T09:19:29.119Z,19360
2016-04-25T09:20:12.072Z,16320
2016-04-25T09:20:55.029Z,16744
2016-04-25T09:21:38.000Z,15320
2016-04-25T09:22:21.000Z,15332
2016-04-25T09:23:03.956Z,16372
2016-04-25T09:23:46.912Z,17248
2016-04-25T09:24:29.852Z,19552
2016-04-25T09:25:12.805Z,16100
2016-04-25T09:25:55.760Z,13472
2016-04-25T09:26:38.841Z,12584
2016-04-25T09:27:21.841Z,19168
2016-04-25T09:28:04.766Z,13192
2016-04-25T09:28:47.629Z,12308
2016-04-25T09:29:31.568Z,12464
2016-04-25T09:30:14.381Z,13744
2016-04-25T09:30:57.337Z,20384
2016-04-25T09:31:40.292Z,24320
2016-04-25T09:32:23.229Z,38016
2016-04-25T09:33:05.390Z,18976
2016-04-25T09:33:48.360Z,20256
2016-04-25T09:34:31.300Z,80480
2016-04-25T09:35:14.097Z,39264
2016-04-25T09:35:57.053Z,23456
2016-04-25T09:36:39.978Z,12800
2016-04-25T09:37:22.947Z,14884
2016-04-25T09:38:05.903Z,20288
2016-04-25T09:38:48.842Z,45792
2016-04-25T09:39:31.798Z,22080
2016-04-25T09:40:14.751Z,66752
2016-04-25T09:40:57.723Z,26208
2016-04-25T09:41:40.663Z,28448
2016-04-25T09:42:23.616Z,39904
2016-04-25T09:43:06.556Z,23008
2016-04-25T09:43:50.247Z,25024
2016-04-25T09:44:33.983Z,75872
2016-04-25T09:45:16.952Z,87552
2016-04-25T09:45:59.908Z,89120
2016-04-25T09:46:42.864Z,93824
2016-04-25T09:47:25.833Z,98944
2016-04-25T09:48:08.805Z,94368
2016-04-25T09:48:51.775Z,96960
2016-04-25T09:49:34.763Z,88352
2016-04-25T09:50:17.685Z,29760
2016-04-25T09:51:00.641Z,27392
2016-04-25T09:51:43.596Z,74400
2016-04-25T09:52:26.549Z,71104
2016-04-25T09:53:09.505Z,25248